createdAt,value
2022-08-26T00:01:52.533Z,48.17
2022-08-26T00:04:21.138Z,49.17
2022-08-26T00:06:48.247Z,48.60
2022-08-26T00:09:16.261Z,48.80
2022-08-26T00:11:43.680Z,48.45
2022-08-26T00:14:10.507Z,48.92
2022-08-26T00:16:40.908Z,47.42
2022-08-26T00:19:14.559Z,48.17
2022-08-26T00:21:41.650Z,48.15
2022-08-26T00:24:09.009Z,48.08
2022-08-26T00:26:36.264Z,47.65
2022-08-26T00:29:03.794Z,47.85
2022-08-26T00:31:32.130Z,47.65
2022-08-26T00:34:00.443Z,48.03
2022-08-26T00:36:29.766Z,47.88
2022-08-26T00:38:56.928Z,47.55
2022-08-26T00:41:24.169Z,48.40
2022-08-26T00:43:51.483Z,47.95
2022-08-26T00:46:21.719Z,48.03
2022-08-26T00:48:52.224Z,47.80
2022-08-26T00:51:24.572Z,48.28
2022-08-26T00:54:04.104Z,47.90
2022-08-26T00:56:37.989Z,48.22
2022-08-26T00:59:08.093Z,47.70
2022-08-26T01:01:36.254Z,47.65
2022-08-26T01:04:03.631Z,47.85
2022-08-26T01:06:32.006Z,48.17
2022-08-26T01:08:59.082Z,48.15
2022-08-26T01:11:26.335Z,48.00
2022-08-26T01:13:56.347Z,48.25
2022-08-26T01:16:25.540Z,48.38
2022-08-26T01:18:54.681Z,48.03
2022-08-26T01:21:28.568Z,48.75
2022-08-26T01:23:59.453Z,48.70
2022-08-26T01:26:30.967Z,48.22
2022-08-26T01:29:03.054Z,48.50
2022-08-26T01:31:34.986Z,48.67
2022-08-26T01:34:06.754Z,48.38
2022-08-26T01:36:36.961Z,48.47
2022-08-26T01:39:07.280Z,48.22
2022-08-26T01:41:36.495Z,48.47
2022-08-26T01:44:06.635Z,48.70
2022-08-26T01:46:37.209Z,48.75
2022-08-26T01:49:08.384Z,48.78
2022-08-26T01:51:37.278Z,49.53
2022-08-26T01:54:07.559Z,49.15
2022-08-26T01:56:39.611Z,49.53
2022-08-26T01:59:11.326Z,48.75
2022-08-26T02:01:39.725Z,49.47
2022-08-26T02:04:14.238Z,48.70
2022-08-26T02:06:42.003Z,49.90
2022-08-26T02:09:11.508Z,48.90
2022-08-26T02:11:38.590Z,48.95
2022-08-26T02:14:11.523Z,48.67
2022-08-26T02:16:42.219Z,49.15
2022-08-26T02:19:17.151Z,49.17
2022-08-26T02:21:46.115Z,49.05
2022-08-26T02:24:22.958Z,49.33
2022-08-26T02:26:52.047Z,49.15
2022-08-26T02:29:23.874Z,49.60
2022-08-26T02:31:50.930Z,49.08
2022-08-26T02:34:21.815Z,49.75
2022-08-26T02:36:49.434Z,50.00
2022-08-26T02:39:19.738Z,49.40
2022-08-26T02:44:16.405Z,49.47
2022-08-26T02:46:46.916Z,49.40
2022-08-26T02:49:14.442Z,50.25
2022-08-26T02:51:41.251Z,49.05
2022-08-26T02:54:10.025Z,49.63
2022-08-26T02:56:38.341Z,49.78
2022-08-26T02:59:05.271Z,50.08
2022-08-26T03:01:35.498Z,48.97
2022-08-26T03:04:05.552Z,48.55
2022-08-26T03:06:32.627Z,50.10
2022-08-26T03:08:59.691Z,49.35
2022-08-26T03:11:30.881Z,49.75
2022-08-26T03:14:01.730Z,49.55
2022-08-26T03:16:32.662Z,50.28
2022-08-26T03:19:00.434Z,49.80
2022-08-26T03:21:27.310Z,50.20
2022-08-26T03:23:54.222Z,50.25
2022-08-26T03:26:25.948Z,50.40
2022-08-26T03:29:11.127Z,51.72
2022-08-26T03:31:39.429Z,51.22
2022-08-26T03:34:06.873Z,52.83
2022-08-26T03:36:33.858Z,51.30
2022-08-26T03:39:02.052Z,53.28
2022-08-26T03:41:29.754Z,53.05
2022-08-26T03:44:01.032Z,52.22
2022-08-26T03:46:28.848Z,53.28
2022-08-26T03:48:57.862Z,55.10
2022-08-26T03:51:26.173Z,54.72
2022-08-26T03:53:53.235Z,61.35
2022-08-26T03:56:20.165Z,60.08
2022-08-26T03:58:47.043Z,56.75
2022-08-26T04:01:16.233Z,70.80
2022-08-26T04:04:00.196Z,53.35
2022-08-26T04:06:31.148Z,53.00
2022-08-26T04:09:01.022Z,52.70
2022-08-26T04:11:32.113Z,53.45
2022-08-26T04:14:06.061Z,52.42
2022-08-26T04:18:59.891Z,53.15
2022-08-26T04:21:29.380Z,53.85
2022-08-26T04:23:56.750Z,56.35
2022-08-26T04:26:25.813Z,65.90
2022-08-26T04:28:54.913Z,57.03
2022-08-26T04:31:22.100Z,55.95
2022-08-26T04:33:50.086Z,54.92
2022-08-26T04:36:17.706Z,56.97
2022-08-26T04:38:50.637Z,57.47
2022-08-26T04:41:19.706Z,54.13
2022-08-26T04:43:48.867Z,59.42
2022-08-26T04:46:18.550Z,50.10
2022-08-26T04:48:46.014Z,50.58
2022-08-26T04:51:12.975Z,51.30
2022-08-26T04:53:39.958Z,51.72
2022-08-26T04:56:08.903Z,51.72
2022-08-26T04:58:38.939Z,52.42
2022-08-26T05:01:06.268Z,50.47
2022-08-26T05:03:33.111Z,50.53
2022-08-26T05:06:04.063Z,49.80
2022-08-26T05:08:31.661Z,48.90
2022-08-26T05:10:58.990Z,48.85
2022-08-26T05:13:28.576Z,49.33
2022-08-26T05:15:59.122Z,49.55
2022-08-26T05:18:30.033Z,48.63
2022-08-26T05:20:57.516Z,47.60
2022-08-26T05:23:24.546Z,47.63
2022-08-26T05:25:58.966Z,48.65
2022-08-26T05:28:29.124Z,48.17
2022-08-26T05:30:56.640Z,52.13
2022-08-26T05:33:23.601Z,55.85
2022-08-26T05:35:50.654Z,58.00
2022-08-26T05:38:21.749Z,57.65
2022-08-26T05:40:52.866Z,59.70
2022-08-26T05:45:50.400Z,67.05
2022-08-26T05:48:22.751Z,51.63
2022-08-26T05:50:53.107Z,49.97
2022-08-26T05:53:22.605Z,49.35
2022-08-26T05:55:53.996Z,49.97
2022-08-26T05:58:22.475Z,49.33
2022-08-26T06:00:59.402Z,49.60
2022-08-26T06:03:26.898Z,50.08
2022-08-26T06:05:54.055Z,50.72
2022-08-26T06:08:21.822Z,50.25
2022-08-26T06:10:51.400Z,49.40
2022-08-26T06:13:20.169Z,50.92
2022-08-26T06:15:50.450Z,50.13
2022-08-26T06:18:22.035Z,50.20
2022-08-26T06:20:57.247Z,50.25
2022-08-26T06:23:45.456Z,49.70
2022-08-26T06:26:12.783Z,50.65
2022-08-26T06:28:39.595Z,50.92
2022-08-26T06:31:07.698Z,50.83
2022-08-26T06:33:36.435Z,50.05
2022-08-26T06:36:03.990Z,51.00
2022-08-26T06:38:30.892Z,50.75
2022-08-26T06:40:59.670Z,50.92
2022-08-26T06:43:28.324Z,52.00
2022-08-26T06:46:01.692Z,51.63
2022-08-26T06:48:31.940Z,51.28
2022-08-26T06:51:09.406Z,50.47
2022-08-26T06:53:36.891Z,51.33
2022-08-26T06:56:06.215Z,50.85
2022-08-26T06:58:33.963Z,51.50
2022-08-26T07:01:09.071Z,51.38
2022-08-26T07:03:39.513Z,52.80
2022-08-26T07:06:08.614Z,52.42
2022-08-26T07:08:35.663Z,51.70
2022-08-26T07:11:04.940Z,51.58
2022-08-26T07:13:31.844Z,51.72
2022-08-26T07:16:03.175Z,52.13
2022-08-26T07:18:31.339Z,52.08
2022-08-26T07:20:58.264Z,52.10
2022-08-26T07:23:27.605Z,53.20
2022-08-26T07:25:54.691Z,53.35
2022-08-26T07:28:22.967Z,52.70
2022-08-26T07:30:50.359Z,52.13
2022-08-26T07:33:18.001Z,52.55
2022-08-26T07:35:45.472Z,51.83
2022-08-26T07:38:13.414Z,52.17
2022-08-26T07:40:41.804Z,52.53
2022-08-26T07:43:09.873Z,51.92
2022-08-26T07:45:37.072Z,52.47
2022-08-26T07:48:05.237Z,53.50
2022-08-26T07:50:49.483Z,52.80
2022-08-26T07:53:18.240Z,53.72
2022-08-26T07:55:47.750Z,51.90
2022-08-26T07:58:15.188Z,52.55
2022-08-26T08:00:43.076Z,52.08
2022-08-26T08:03:10.966Z,53.90
2022-08-26T08:05:38.697Z,53.00
2022-08-26T08:08:27.135Z,53.92
2022-08-26T08:10:56.611Z,53.58
2022-08-26T08:13:23.728Z,55.63
2022-08-26T08:15:51.167Z,54.08
2022-08-26T08:18:20.606Z,55.10
2022-08-26T08:20:59.002Z,54.45
2022-08-26T08:23:32.997Z,53.60
2022-08-26T08:26:06.476Z,53.80
2022-08-26T08:28:35.488Z,54.22
2022-08-26T08:31:02.926Z,54.08
2022-08-26T08:33:30.623Z,53.42
2022-08-26T08:35:57.552Z,54.35
2022-08-26T08:38:25.164Z,53.60
2022-08-26T08:40:53.241Z,54.15
2022-08-26T08:43:31.061Z,53.80
2022-08-26T08:46:09.850Z,53.80
2022-08-26T08:48:43.446Z,53.38
2022-08-26T08:51:20.748Z,54.15
2022-08-26T08:53:54.786Z,53.50
2022-08-26T08:56:27.144Z,53.33
2022-08-26T08:59:06.867Z,53.55
2022-08-26T09:01:59.980Z,52.60
2022-08-26T09:04:46.896Z,53.20
2022-08-26T09:07:18.547Z,53.38
2022-08-26T09:09:49.565Z,53.97
2022-08-26T09:12:21.013Z,53.70
2022-08-26T09:15:02.991Z,54.30
2022-08-26T09:17:43.873Z,53.15
2022-08-26T09:22:41.377Z,56.33
2022-08-26T09:25:13.631Z,57.42
2022-08-26T09:27:43.688Z,56.53
2022-08-26T09:30:14.849Z,60.40
2022-08-26T09:32:42.756Z,56.78
2022-08-26T09:35:26.581Z,58.53
2022-08-26T09:37:53.875Z,60.13
2022-08-26T09:40:29.541Z,57.17
2022-08-26T09:43:12.106Z,52.47
2022-08-26T09:45:50.094Z,53.83
2022-08-26T09:48:27.266Z,53.17
2022-08-26T09:50:56.279Z,53.75
2022-08-26T09:53:30.312Z,52.80
2022-08-26T09:56:16.636Z,54.05
2022-08-26T09:58:46.043Z,56.03
2022-08-26T10:01:30.079Z,56.13
2022-08-26T10:04:06.623Z,55.42
2022-08-26T10:06:39.242Z,54.92
2022-08-26T10:09:11.349Z,55.05
2022-08-26T10:11:45.191Z,53.95
2022-08-26T10:14:19.139Z,54.97
2022-08-26T10:16:52.721Z,54.63
2022-08-26T10:19:25.324Z,53.58
2022-08-26T10:22:12.463Z,53.80
2022-08-26T10:24:43.037Z,53.63
2022-08-26T10:27:23.191Z,54.67
2022-08-26T10:29:55.730Z,55.20
2022-08-26T10:32:27.907Z,54.67
2022-08-26T10:34:54.849Z,54.60
2022-08-26T10:37:26.974Z,54.85
2022-08-26T10:40:01.487Z,55.35
2022-08-26T10:42:35.388Z,56.28
2022-08-26T10:45:11.649Z,54.08
2022-08-26T10:47:45.744Z,55.40
2022-08-26T10:50:12.920Z,55.88
2022-08-26T10:52:54.099Z,56.20
2022-08-26T10:55:29.453Z,55.45
2022-08-26T10:58:26.725Z,55.30
2022-08-26T11:01:22.688Z,55.05
2022-08-26T11:03:59.484Z,54.65
2022-08-26T11:06:28.997Z,55.88
2022-08-26T11:08:57.165Z,56.22
2022-08-26T11:11:49.276Z,55.45
2022-08-26T11:14:58.749Z,55.50
2022-08-26T11:17:57.781Z,55.58
2022-08-26T11:20:36.276Z,54.50
2022-08-26T11:23:37.498Z,54.58
2022-08-26T11:26:37.779Z,54.42
2022-08-26T11:29:04.515Z,54.88
2022-08-26T11:31:55.604Z,54.90
2022-08-26T11:34:57.036Z,55.22
2022-08-26T11:37:32.459Z,55.50
2022-08-26T11:40:03.612Z,54.42
2022-08-26T11:42:41.042Z,55.20
2022-08-26T11:45:19.946Z,55.55
2022-08-26T11:47:47.474Z,55.33
2022-08-26T11:50:20.358Z,55.45
2022-08-26T11:53:01.580Z,55.53
2022-08-26T11:55:33.167Z,54.95
2022-08-26T12:00:38.853Z,54.63
2022-08-26T12:03:18.037Z,55.03
2022-08-26T12:05:47.559Z,55.28
2022-08-26T12:08:18.726Z,55.28
2022-08-26T12:10:45.675Z,55.45
2022-08-26T12:13:22.004Z,54.97
2022-08-26T12:15:52.660Z,55.50
2022-08-26T12:18:29.396Z,55.08
2022-08-26T12:21:00.456Z,55.42
2022-08-26T12:23:39.893Z,56.05
2022-08-26T12:26:11.220Z,55.97
2022-08-26T12:28:43.635Z,55.50
2022-08-26T12:31:10.526Z,55.85
2022-08-26T12:33:38.180Z,55.05
2022-08-26T12:36:06.778Z,54.83
2022-08-26T12:38:37.148Z,55.80
2022-08-26T12:41:04.159Z,55.50
2022-08-26T12:43:40.766Z,55.58
2022-08-26T12:46:09.918Z,55.60
2022-08-26T12:48:40.578Z,54.97
2022-08-26T12:51:15.798Z,55.42
2022-08-26T12:53:44.426Z,55.63
2022-08-26T12:56:31.895Z,55.25
2022-08-26T12:59:06.165Z,54.90
2022-08-26T13:01:39.134Z,56.47
2022-08-26T13:04:06.977Z,56.28
2022-08-26T13:06:35.010Z,55.17
2022-08-26T13:09:24.926Z,56.17
2022-08-26T13:11:59.340Z,54.95
2022-08-26T13:14:29.161Z,54.95
2022-08-26T13:16:56.047Z,54.95
2022-08-26T13:19:25.501Z,55.08
2022-08-26T13:21:54.558Z,55.20
2022-08-26T13:24:28.643Z,54.22
2022-08-26T13:26:56.163Z,54.55
2022-08-26T13:29:23.082Z,54.10
2022-08-26T13:31:50.930Z,54.25
2022-08-26T13:34:20.124Z,54.28
2022-08-26T13:36:47.968Z,54.05
2022-08-26T13:39:15.040Z,53.85
2022-08-26T13:41:43.410Z,54.15
2022-08-26T13:44:10.619Z,53.78
2022-08-26T13:46:37.723Z,54.53
2022-08-26T13:49:04.986Z,53.15
2022-08-26T13:51:32.724Z,53.47
2022-08-26T13:54:00.067Z,53.60
2022-08-26T13:56:29.724Z,53.58
2022-08-26T13:58:59.510Z,53.38
2022-08-26T14:01:27.618Z,53.92
2022-08-26T14:03:54.594Z,53.58
2022-08-26T14:06:22.213Z,53.35
2022-08-26T14:08:49.496Z,53.35
2022-08-26T14:11:17.477Z,53.88
2022-08-26T14:13:44.403Z,53.80
2022-08-26T14:16:22.085Z,53.33
2022-08-26T14:18:50.907Z,53.75
2022-08-26T14:21:18.636Z,53.47
2022-08-26T14:23:45.577Z,53.40
2022-08-26T14:26:28.242Z,53.83
2022-08-26T14:28:57.123Z,53.13
2022-08-26T14:31:27.166Z,53.50
2022-08-26T14:33:56.740Z,54.03
2022-08-26T14:36:31.363Z,53.58
2022-08-26T14:39:01.988Z,53.55
2022-08-26T14:41:31.322Z,53.83
2022-08-26T14:44:01.811Z,53.67
2022-08-26T14:46:33.458Z,54.28
2022-08-26T14:49:05.239Z,53.63
2022-08-26T14:51:34.929Z,53.58
2022-08-26T14:54:14.577Z,54.13
2022-08-26T14:56:47.437Z,53.10
2022-08-26T14:59:15.794Z,54.13
2022-08-26T15:01:44.795Z,53.42
2022-08-26T15:04:11.849Z,54.65
2022-08-26T15:06:39.093Z,53.97
2022-08-26T15:09:06.844Z,53.17
2022-08-26T15:11:33.702Z,53.58
2022-08-26T15:14:00.636Z,53.75
2022-08-26T15:16:29.191Z,53.20
2022-08-26T15:18:57.943Z,54.03
2022-08-26T15:21:26.356Z,53.72
2022-08-26T15:23:54.118Z,54.13
2022-08-26T15:26:21.832Z,54.25
2022-08-26T15:28:49.077Z,53.78
2022-08-26T15:31:16.417Z,53.55
2022-08-26T15:33:43.729Z,53.60
2022-08-26T15:36:12.134Z,52.92
2022-08-26T15:38:42.509Z,53.20
2022-08-26T15:41:10.342Z,52.50
2022-08-26T15:43:38.057Z,52.80
2022-08-26T15:46:10.868Z,53.42
2022-08-26T15:48:38.479Z,53.92
2022-08-26T15:51:06.884Z,53.22
2022-08-26T15:53:35.552Z,53.35
2022-08-26T15:56:02.826Z,52.85
2022-08-26T15:58:30.450Z,52.97
2022-08-26T16:00:58.112Z,52.60
2022-08-26T16:03:25.047Z,53.20
2022-08-26T16:05:52.382Z,52.50
2022-08-26T16:08:19.627Z,53.13
2022-08-26T16:10:50.635Z,52.63
2022-08-26T16:15:45.649Z,53.78
2022-08-26T16:18:13.906Z,52.90
2022-08-26T16:20:50.200Z,53.25
2022-08-26T16:23:36.101Z,53.30
2022-08-26T16:26:10.588Z,52.92
2022-08-26T16:28:38.442Z,53.65
2022-08-26T16:31:06.429Z,52.90
2022-08-26T16:33:33.493Z,52.97
2022-08-26T16:36:00.350Z,50.90
2022-08-26T16:38:27.230Z,50.08
2022-08-26T16:40:54.132Z,50.78
2022-08-26T16:43:22.390Z,50.75
2022-08-26T16:45:49.261Z,50.50
2022-08-26T16:48:16.563Z,50.80
2022-08-26T16:50:43.431Z,50.40
2022-08-26T16:55:44.634Z,51.50
2022-08-26T16:58:11.866Z,51.55
2022-08-26T17:00:40.395Z,51.33
2022-08-26T17:03:07.363Z,51.72
2022-08-26T17:05:34.745Z,51.17
2022-08-26T17:08:01.969Z,52.55
2022-08-26T17:10:30.328Z,51.45
2022-08-26T17:12:57.841Z,51.13
2022-08-26T17:15:25.906Z,51.03
2022-08-26T17:17:54.384Z,51.50
2022-08-26T17:20:22.667Z,51.30
2022-08-26T17:22:51.812Z,51.42
2022-08-26T17:25:21.872Z,51.10
2022-08-26T17:27:48.833Z,52.42
2022-08-26T17:30:17.204Z,52.47
2022-08-26T17:32:44.735Z,51.67
2022-08-26T17:35:14.355Z,52.60
2022-08-26T17:37:41.549Z,52.38
2022-08-26T17:40:11.788Z,52.33
2022-08-26T17:42:39.771Z,52.30
2022-08-26T17:45:08.134Z,52.08
2022-08-26T17:47:35.100Z,52.47
2022-08-26T17:50:02.836Z,52.60
2022-08-26T17:52:31.253Z,52.35
2022-08-26T17:54:59.027Z,52.42
2022-08-26T17:57:26.623Z,51.97
2022-08-26T17:59:53.699Z,51.72
2022-08-26T18:02:21.648Z,52.13
2022-08-26T18:04:48.984Z,51.67
2022-08-26T18:07:16.303Z,51.50
2022-08-26T18:09:44.919Z,51.90
2022-08-26T18:12:12.601Z,52.17
2022-08-26T18:14:39.456Z,51.45
2022-08-26T18:17:06.320Z,52.75
2022-08-26T18:19:33.262Z,52.75
2022-08-26T18:22:00.187Z,52.88
2022-08-26T18:24:30.331Z,53.50
2022-08-26T18:26:58.665Z,54.53
2022-08-26T18:29:29.304Z,54.60
2022-08-26T18:31:56.585Z,54.72
2022-08-26T18:34:23.450Z,55.90
2022-08-26T18:36:58.653Z,53.97
2022-08-26T18:39:25.742Z,55.63
2022-08-26T18:41:53.271Z,55.13
2022-08-26T18:44:23.200Z,56.42
2022-08-26T18:46:51.127Z,55.63
2022-08-26T18:49:20.791Z,55.70
2022-08-26T18:51:48.064Z,54.80
2022-08-26T18:54:14.991Z,53.65
2022-08-26T18:56:42.466Z,53.65
2022-08-26T18:59:09.996Z,53.28
2022-08-26T19:01:40.880Z,53.63
2022-08-26T19:04:12.888Z,54.47
2022-08-26T19:06:46.166Z,53.20
2022-08-26T19:09:14.651Z,53.95
2022-08-26T19:11:45.269Z,53.97
2022-08-26T19:14:15.190Z,54.40
2022-08-26T19:16:45.642Z,55.75
2022-08-26T19:19:13.577Z,56.13
2022-08-26T19:21:40.927Z,56.10
2022-08-26T19:24:12.277Z,55.97
2022-08-26T19:26:39.212Z,56.30
2022-08-26T19:29:06.716Z,56.45
2022-08-26T19:31:33.640Z,55.75
2022-08-26T19:34:02.082Z,55.97
2022-08-26T19:36:29.428Z,56.35
2022-08-26T19:38:56.866Z,56.55
2022-08-26T19:41:37.074Z,56.08
2022-08-26T19:44:09.269Z,56.65
2022-08-26T19:49:05.306Z,57.65
2022-08-26T19:51:34.040Z,56.55
2022-08-26T19:54:02.191Z,56.42
2022-08-26T19:56:29.870Z,55.95
2022-08-26T19:58:56.927Z,54.40
2022-08-26T20:01:24.172Z,50.42
2022-08-26T20:03:51.214Z,50.67
2022-08-26T20:06:20.263Z,51.70
2022-08-26T20:08:47.799Z,52.40
2022-08-26T20:11:18.674Z,49.73
2022-08-26T20:13:46.915Z,55.05
2022-08-26T20:16:14.477Z,54.20
2022-08-26T20:19:00.781Z,55.45
2022-08-26T20:21:33.144Z,50.03
2022-08-26T20:24:04.337Z,49.35
2022-08-26T20:26:33.450Z,49.47
2022-08-26T20:29:00.503Z,49.30
2022-08-26T20:31:28.253Z,49.83
2022-08-26T20:33:55.700Z,50.83
2022-08-26T20:36:25.902Z,55.88
2022-08-26T20:38:55.537Z,59.75
2022-08-26T20:41:24.076Z,51.78
2022-08-26T20:43:51.132Z,53.05
2022-08-26T20:46:21.896Z,59.25
2022-08-26T20:48:51.934Z,54.17
2022-08-26T20:51:19.261Z,54.67
2022-08-26T20:53:46.719Z,51.97
2022-08-26T20:56:16.393Z,52.92
2022-08-26T20:58:43.349Z,52.70
2022-08-26T21:01:18.480Z,53.03
2022-08-26T21:03:45.767Z,51.05
2022-08-26T21:06:12.731Z,49.92
2022-08-26T21:08:42.608Z,49.55
2022-08-26T21:11:11.035Z,49.40
2022-08-26T21:14:01.561Z,48.97
2022-08-26T21:16:27.151Z,49.70
2022-08-26T21:18:54.284Z,49.45
2022-08-26T21:21:24.990Z,50.20
2022-08-26T21:23:52.198Z,50.15
2022-08-26T21:26:19.272Z,49.20
2022-08-26T21:28:48.766Z,49.50
2022-08-26T21:31:17.874Z,49.17
2022-08-26T21:33:44.805Z,48.60
2022-08-26T21:36:12.832Z,48.17
2022-08-26T21:38:39.722Z,48.63
2022-08-26T21:41:10.562Z,48.20
2022-08-26T21:43:37.754Z,48.75
2022-08-26T21:46:14.022Z,48.10
2022-08-26T21:48:43.719Z,48.65
2022-08-26T21:51:13.993Z,48.72
2022-08-26T21:53:41.234Z,48.65
2022-08-26T21:56:15.299Z,48.83
2022-08-26T21:58:42.548Z,48.95
2022-08-26T22:01:13.082Z,48.85
2022-08-26T22:03:46.789Z,49.05
2022-08-26T22:06:15.191Z,48.95
2022-08-26T22:08:42.134Z,48.97
2022-08-26T22:11:09.621Z,49.28
2022-08-26T22:13:39.157Z,49.80
2022-08-26T22:16:07.437Z,49.75
2022-08-26T22:18:36.381Z,49.45
2022-08-26T22:21:05.771Z,49.38
2022-08-26T22:23:33.089Z,49.58
2022-08-26T22:26:00.596Z,49.10
2022-08-26T22:28:28.282Z,49.65
2022-08-26T22:30:55.759Z,49.33
2022-08-26T22:33:23.490Z,49.40
2022-08-26T22:35:53.107Z,49.30
2022-08-26T22:38:21.081Z,49.38
2022-08-26T22:40:50.585Z,49.13
2022-08-26T22:43:18.912Z,49.67
2022-08-26T22:45:47.918Z,49.63
2022-08-26T22:48:17.837Z,48.72
2022-08-26T22:50:45.935Z,49.45
2022-08-26T22:53:15.086Z,49.63
2022-08-26T22:55:43.534Z,51.00
2022-08-26T22:58:11.820Z,50.00
2022-08-26T23:00:40.280Z,50.72
2022-08-26T23:03:08.135Z,50.25
2022-08-26T23:05:35.607Z,50.10
2022-08-26T23:08:03.049Z,51.55
2022-08-26T23:10:32.153Z,50.53
2022-08-26T23:12:59.264Z,49.95
2022-08-26T23:15:26.419Z,50.38
2022-08-26T23:17:58.477Z,49.78
2022-08-26T23:20:26.987Z,49.25
2022-08-26T23:22:54.064Z,49.75
2022-08-26T23:25:21.444Z,49.63
2022-08-26T23:27:50.264Z,49.80
2022-08-26T23:30:20.037Z,49.58
2022-08-26T23:32:46.952Z,49.42
2022-08-26T23:35:14.789Z,49.55
2022-08-26T23:37:44.364Z,49.90
2022-08-26T23:42:41.944Z,49.97
2022-08-26T23:45:13.513Z,48.58
2022-08-26T23:47:41.245Z,50.28
2022-08-26T23:50:09.019Z,49.95
2022-08-26T23:52:54.455Z,49.53
2022-08-26T23:55:22.581Z,49.72
2022-08-26T23:57:49.605Z,50.05
